Gao Xin 16 — 9LY2549 — position and weather

sailwx.info

Track history (hours):
 
Tides and Currents Weather Stations Pressure Air Temp Water Temp Dewpoint Dewpoint Depression Visibility Wind Speed Wind Dir Waves Ship Positions

Gao Xin 16

Last reported at 2018-Jun-11 14:58 UTC. Time now 2018-Jun-20 05:21 UTC.
Position N 33°49' E 135°04'.
Warning: this ship's position is 8 days out of date.

Length 145 m; draft 4.9 m.

Type: Cargo ship. MMSI: 667003352.

Date/timePositionNaut miles runAvg speedWind from/ knotsBaromVisibWave heightAir tempDewpointWater temp
2018-Jun-11 14:58N 33°49' E 135°04'510.8
2018-Jun-11 14:29N 33°53' E 135°01'510.8
2018-Jun-11 14:00N 33°58' E 135°00'510.9
2018-Jun-11 13:30N 34°04' E 134°59'611.1
2018-Jun-11 13:00N 34°09' E 134°59'611.4
2018-Jun-11 12:30N 34°15' E 134°58'510.2
2018-Jun-11 12:00N 34°20' E 134°60'5 9.4
2018-Jun-11 11:31N 34°22' E 135°04'3 5.4
2018-Jun-11 11:00N 34°22' E 135°08'0 0.1
2018-Jun-11 10:30N 34°22' E 135°08'0 0.2
2018-Jun-11 10:00N 34°22' E 135°08'0 0.0
2018-Jun-11 09:30N 34°22' E 135°08'0 0.1
2018-Jun-11 09:00N 34°22' E 135°08'0 0.2
2018-Jun-11 08:30N 34°22' E 135°08'0 0.1
2018-Jun-11 08:00N 34°22' E 135°08'0 0.0
2018-Jun-11 07:21N 34°22' E 135°08'0 0.0
2018-Jun-11 07:00N 34°22' E 135°08'0 0.0
2018-Jun-11 06:18N 34°22' E 135°08'0 0.0
2018-Jun-11 06:00N 34°22' E 135°08'0 0.1
2018-Jun-11 05:30N 34°22' E 135°08'0 0.0
2018-Jun-11 05:00N 34°22' E 135°08'0 0.0
2018-Jun-11 04:30N 34°22' E 135°08'0 0.0
2018-Jun-11 04:00N 34°22' E 135°08'0 0.1
2018-Jun-11 03:30N 34°22' E 135°08'0 0.1
2018-Jun-11 03:00N 34°22' E 135°08'0 0.0
2018-Jun-11 02:30N 34°22' E 135°08'0 0.0
2018-Jun-11 02:00N 34°22' E 135°08'0 0.0
2018-Jun-11 01:30N 34°22' E 135°08'0 0.1
2018-Jun-11 00:57N 34°22' E 135°08'0 0.0
2018-Jun-11 00:30N 34°22' E 135°08'0 0.0
2018-Jun-11 00:00N 34°22' E 135°08'0 0.1
2018-Jun-10 23:30N 34°22' E 135°08'0 0.0
2018-Jun-10 22:57N 34°22' E 135°08'0 0.1
2018-Jun-10 22:27N 34°22' E 135°08'0 0.1
2018-Jun-10 22:00N 34°22' E 135°08'0 0.0
2018-Jun-10 21:30N 34°22' E 135°08'0 0.1
2018-Jun-10 21:00N 34°22' E 135°08'0 0.1
2018-Jun-10 20:30N 34°22' E 135°08'0 0.1
2018-Jun-10 19:57N 34°22' E 135°08'0 0.1
2018-Jun-10 19:27N 34°22' E 135°08'0 0.0
2018-Jun-10 18:57N 34°22' E 135°08'0 0.1
2018-Jun-10 18:30N 34°22' E 135°08'0 0.0
2018-Jun-10 18:00N 34°22' E 135°08'0 0.1
2018-Jun-10 17:30N 34°22' E 135°08'0 0.0
2018-Jun-10 17:00N 34°22' E 135°08'0 0.0
2018-Jun-10 16:18N 34°22' E 135°08'0 0.0
2018-Jun-10 15:42N 34°22' E 135°08'0 0.0
2018-Jun-10 15:21N 34°22' E 135°08'0 0.1
2018-Jun-10 15:00N 34°22' E 135°08'0 0.0
2018-Jun-10 14:27N 34°22' E 135°08'0 0.0
2018-Jun-10 13:30N 34°22' E 135°08'0 0.0
2018-Jun-10 12:48N 34°22' E 135°08'0 0.0
2018-Jun-10 12:27N 34°22' E 135°08'0 0.1
2018-Jun-10 12:00N 34°22' E 135°08'0 0.1
2018-Jun-10 11:30N 34°22' E 135°08'0 0.0
2018-Jun-10 11:00N 34°22' E 135°08'0 0.2
2018-Jun-10 10:30N 34°22' E 135°08'0 0.2
2018-Jun-10 10:00N 34°22' E 135°08'0 0.0
2018-Jun-10 09:30N 34°22' E 135°08'0 0.0
2018-Jun-10 09:00N 34°22' E 135°08'0 0.0
2018-Jun-10 08:27N 34°22' E 135°08'0 0.0
2018-Jun-10 08:00N 34°22' E 135°08'0 0.0
2018-Jun-10 07:27N 34°22' E 135°08'0 0.0
2018-Jun-10 07:00N 34°22' E 135°08'0 0.0
2018-Jun-10 06:30N 34°22' E 135°08'0 0.1
2018-Jun-10 06:00N 34°22' E 135°08'0 0.0
2018-Jun-10 05:30N 34°22' E 135°08'0 0.1
2018-Jun-10 04:57N 34°22' E 135°08'0 0.1
2018-Jun-10 04:30N 34°22' E 135°08'0 0.0
2018-Jun-10 04:00N 34°22' E 135°08'0 0.0
2018-Jun-10 03:30N 34°22' E 135°08'0 0.0
2018-Jun-10 02:57N 34°22' E 135°08'1 1.2
2018-Jun-10 02:30N 34°22' E 135°07'3 6.7
2018-Jun-10 02:00N 34°26' E 135°06'611.3
2018-Jun-10 01:30N 34°31' E 135°05'611.6
2018-Jun-10 01:00N 34°37' E 135°02'811.9
2018-Jun-10 00:18N 34°35' E 134°52'311.2
2018-Jun-10 00:00N 34°33' E 134°48'6 9.7
2018-Jun-09 23:24N 34°36' E 134°42'410.9
2018-Jun-09 23:00N 34°39' E 134°38'6 0.1
2018-Jun-07 19:26N 34°45' E 134°38'0 0.0
2018-Jun-07 18:50N 34°45' E 134°38'0 0.0
2018-Jun-07 18:29N 34°45' E 134°38'4 0.6
2018-Jun-07 10:58N 34°40' E 134°38'4 8.6
2018-Jun-07 10:31N 34°37' E 134°36'710.2
2018-Jun-07 09:51N 34°32' E 134°30'410.5
2018-Jun-07 09:31N 34°30' E 134°27'610.1
2018-Jun-07 08:57N 34°25' E 134°23'  
Track history (hours):
 
Tides and Currents Weather Stations Pressure Air Temp Water Temp Dewpoint Dewpoint Depression Visibility Wind Speed Wind Dir Waves Ship Positions

Gao Xin 16

Last reported at 2018-Jun-11 14:58 UTC. Time now 2018-Jun-20 05:21 UTC.
Position N 33°49' E 135°04'.
Warning: this ship's position is 8 days out of date.

Length 145 m; draft 4.9 m.

Type: Cargo ship. MMSI: 667003352.

Date/timePositionNaut miles runAvg speedWind from/ knotsBaromVisibWave heightAir tempDewpointWater temp
2018-Jun-11 14:58N 33°49' E 135°04'510.8
2018-Jun-11 14:29N 33°53' E 135°01'510.8
2018-Jun-11 14:00N 33°58' E 135°00'510.9
2018-Jun-11 13:30N 34°04' E 134°59'611.1
2018-Jun-11 13:00N 34°09' E 134°59'611.4
2018-Jun-11 12:30N 34°15' E 134°58'510.2
2018-Jun-11 12:00N 34°20' E 134°60'5 9.4
2018-Jun-11 11:31N 34°22' E 135°04'3 5.4
2018-Jun-11 11:00N 34°22' E 135°08'0 0.1
2018-Jun-11 10:30N 34°22' E 135°08'0 0.2
2018-Jun-11 10:00N 34°22' E 135°08'0 0.0
2018-Jun-11 09:30N 34°22' E 135°08'0 0.1
2018-Jun-11 09:00N 34°22' E 135°08'0 0.2
2018-Jun-11 08:30N 34°22' E 135°08'0 0.1
2018-Jun-11 08:00N 34°22' E 135°08'0 0.0
2018-Jun-11 07:21N 34°22' E 135°08'0 0.0
2018-Jun-11 07:00N 34°22' E 135°08'0 0.0
2018-Jun-11 06:18N 34°22' E 135°08'0 0.0
2018-Jun-11 06:00N 34°22' E 135°08'0 0.1
2018-Jun-11 05:30N 34°22' E 135°08'0 0.0
2018-Jun-11 05:00N 34°22' E 135°08'0 0.0
2018-Jun-11 04:30N 34°22' E 135°08'0 0.0
2018-Jun-11 04:00N 34°22' E 135°08'0 0.1
2018-Jun-11 03:30N 34°22' E 135°08'0 0.1
2018-Jun-11 03:00N 34°22' E 135°08'0 0.0
2018-Jun-11 02:30N 34°22' E 135°08'0 0.0
2018-Jun-11 02:00N 34°22' E 135°08'0 0.0
2018-Jun-11 01:30N 34°22' E 135°08'0 0.1
2018-Jun-11 00:57N 34°22' E 135°08'0 0.0
2018-Jun-11 00:30N 34°22' E 135°08'0 0.0
2018-Jun-11 00:00N 34°22' E 135°08'0 0.1
2018-Jun-10 23:30N 34°22' E 135°08'0 0.0
2018-Jun-10 22:57N 34°22' E 135°08'0 0.1
2018-Jun-10 22:27N 34°22' E 135°08'0 0.1
2018-Jun-10 22:00N 34°22' E 135°08'0 0.0
2018-Jun-10 21:30N 34°22' E 135°08'0 0.1
2018-Jun-10 21:00N 34°22' E 135°08'0 0.1
2018-Jun-10 20:30N 34°22' E 135°08'0 0.1
2018-Jun-10 19:57N 34°22' E 135°08'0 0.1
2018-Jun-10 19:27N 34°22' E 135°08'0 0.0
2018-Jun-10 18:57N 34°22' E 135°08'0 0.1
2018-Jun-10 18:30N 34°22' E 135°08'0 0.0
2018-Jun-10 18:00N 34°22' E 135°08'0 0.1
2018-Jun-10 17:30N 34°22' E 135°08'0 0.0
2018-Jun-10 17:00N 34°22' E 135°08'0 0.0
2018-Jun-10 16:18N 34°22' E 135°08'0 0.0
2018-Jun-10 15:42N 34°22' E 135°08'0 0.0
2018-Jun-10 15:21N 34°22' E 135°08'0 0.1
2018-Jun-10 15:00N 34°22' E 135°08'0 0.0
2018-Jun-10 14:27N 34°22' E 135°08'0 0.0
2018-Jun-10 13:30N 34°22' E 135°08'0 0.0
2018-Jun-10 12:48N 34°22' E 135°08'0 0.0
2018-Jun-10 12:27N 34°22' E 135°08'0 0.1
2018-Jun-10 12:00N 34°22' E 135°08'0 0.1
2018-Jun-10 11:30N 34°22' E 135°08'0 0.0
2018-Jun-10 11:00N 34°22' E 135°08'0 0.2
2018-Jun-10 10:30N 34°22' E 135°08'0 0.2
2018-Jun-10 10:00N 34°22' E 135°08'0 0.0
2018-Jun-10 09:30N 34°22' E 135°08'0 0.0
2018-Jun-10 09:00N 34°22' E 135°08'0 0.0
2018-Jun-10 08:27N 34°22' E 135°08'0 0.0
2018-Jun-10 08:00N 34°22' E 135°08'0 0.0
2018-Jun-10 07:27N 34°22' E 135°08'0 0.0
2018-Jun-10 07:00N 34°22' E 135°08'0 0.0
2018-Jun-10 06:30N 34°22' E 135°08'0 0.1
2018-Jun-10 06:00N 34°22' E 135°08'0 0.0
2018-Jun-10 05:30N 34°22' E 135°08'0 0.1
2018-Jun-10 04:57N 34°22' E 135°08'0 0.1
2018-Jun-10 04:30N 34°22' E 135°08'0 0.0
2018-Jun-10 04:00N 34°22' E 135°08'0 0.0
2018-Jun-10 03:30N 34°22' E 135°08'0 0.0
2018-Jun-10 02:57N 34°22' E 135°08'1 1.2
2018-Jun-10 02:30N 34°22' E 135°07'3 6.7
2018-Jun-10 02:00N 34°26' E 135°06'611.3
2018-Jun-10 01:30N 34°31' E 135°05'611.6
2018-Jun-10 01:00N 34°37' E 135°02'811.9
2018-Jun-10 00:18N 34°35' E 134°52'311.2
2018-Jun-10 00:00N 34°33' E 134°48'6 9.7
2018-Jun-09 23:24N 34°36' E 134°42'410.9
2018-Jun-09 23:00N 34°39' E 134°38'6 0.1
2018-Jun-07 19:26N 34°45' E 134°38'0 0.0
2018-Jun-07 18:50N 34°45' E 134°38'0 0.0
2018-Jun-07 18:29N 34°45' E 134°38'4 0.6
2018-Jun-07 10:58N 34°40' E 134°38'4 8.6
2018-Jun-07 10:31N 34°37' E 134°36'710.2
2018-Jun-07 09:51N 34°32' E 134°30'410.5
2018-Jun-07 09:31N 34°30' E 134°27'610.1
2018-Jun-07 08:57N 34°25' E 134°23'  

Dump ship's entire track history